createdAt,value
2023-01-13T00:00:27.218Z,14.63
2023-01-13T00:02:54.768Z,14.61
2023-01-13T00:05:22.312Z,14.62
2023-01-13T00:07:49.892Z,14.59
2023-01-13T00:10:18.018Z,14.56
2023-01-13T00:12:46.919Z,14.58
2023-01-13T00:15:14.469Z,14.57
2023-01-13T00:17:42.038Z,14.56
2023-01-13T00:20:12.649Z,14.56
2023-01-13T00:22:40.180Z,14.56
2023-01-13T00:25:08.466Z,14.54
2023-01-13T00:27:36.067Z,14.53
2023-01-13T00:30:06.118Z,14.54
2023-01-13T00:32:34.070Z,14.54
2023-01-13T00:35:01.677Z,14.53
2023-01-13T00:37:29.232Z,14.52
2023-01-13T00:39:57.828Z,14.55
2023-01-13T00:42:42.893Z,14.54
2023-01-13T00:45:12.226Z,14.55
2023-01-13T00:47:39.764Z,14.53
2023-01-13T00:50:07.696Z,14.53
2023-01-13T00:52:35.334Z,14.53
2023-01-13T00:55:02.902Z,14.54
2023-01-13T00:57:30.547Z,14.55
2023-01-13T00:59:58.095Z,14.57
2023-01-13T01:02:27.016Z,14.59
2023-01-13T01:04:54.595Z,14.60
2023-01-13T01:07:22.164Z,14.62
2023-01-13T01:09:50.773Z,14.63
2023-01-13T01:12:18.324Z,14.63
2023-01-13T01:14:46.118Z,14.63
2023-01-13T01:17:13.732Z,14.63
2023-01-13T01:19:42.600Z,14.63
2023-01-13T01:22:10.189Z,14.63
2023-01-13T01:24:37.930Z,14.64
2023-01-13T01:27:05.486Z,14.64
2023-01-13T01:29:33.186Z,14.63
2023-01-13T01:32:00.745Z,14.64
2023-01-13T01:34:28.296Z,14.64
2023-01-13T01:36:57.177Z,14.64
2023-01-13T01:39:24.772Z,14.64
2023-01-13T01:42:09.778Z,14.64
2023-01-13T01:45:02.112Z,14.63
2023-01-13T01:47:32.022Z,14.64
2023-01-13T01:50:00.167Z,14.63
2023-01-13T01:52:34.266Z,14.63
2023-01-13T01:55:06.205Z,14.64
2023-01-13T01:57:39.917Z,14.64
2023-01-13T02:00:09.139Z,14.64
2023-01-13T02:02:38.408Z,14.64
2023-01-13T02:05:06.817Z,14.65
2023-01-13T02:07:38.227Z,14.65
2023-01-13T02:10:09.499Z,14.65
2023-01-13T02:12:38.201Z,14.65
2023-01-13T02:15:09.405Z,14.65
2023-01-13T02:17:51.941Z,14.65
2023-01-13T02:20:43.374Z,14.66
2023-01-13T02:23:52.537Z,14.67
2023-01-13T02:26:46.044Z,14.66
2023-01-13T02:29:50.190Z,14.66
2023-01-13T02:32:24.272Z,14.66
2023-01-13T02:35:01.161Z,14.66
2023-01-13T02:37:32.581Z,14.66
2023-01-13T02:40:03.547Z,14.66
2023-01-13T02:42:51.764Z,14.66
2023-01-13T02:45:25.513Z,14.64
2023-01-13T02:47:55.816Z,14.66
2023-01-13T02:50:28.879Z,14.65
2023-01-13T02:52:59.878Z,14.65
2023-01-13T02:55:31.959Z,14.66
2023-01-13T02:58:02.241Z,14.65
2023-01-13T03:00:33.427Z,14.67
2023-01-13T03:03:01.802Z,14.66
2023-01-13T03:05:31.224Z,14.66
2023-01-13T03:08:11.997Z,14.68
2023-01-13T03:10:51.112Z,14.67
2023-01-13T03:13:31.945Z,14.67
2023-01-13T03:16:16.758Z,14.67
2023-01-13T03:18:50.596Z,14.68
2023-01-13T03:21:26.961Z,14.68
2023-01-13T03:24:02.216Z,14.68
2023-01-13T03:26:37.822Z,14.68
2023-01-13T03:29:11.877Z,14.68
2023-01-13T03:31:46.762Z,14.67
2023-01-13T03:34:16.996Z,14.68
2023-01-13T03:36:48.260Z,14.69
2023-01-13T03:39:22.303Z,14.70
2023-01-13T03:41:54.607Z,14.69
2023-01-13T03:44:30.822Z,14.68
2023-01-13T03:47:07.383Z,14.69
2023-01-13T03:49:39.881Z,14.69
2023-01-13T03:52:11.939Z,14.68
2023-01-13T03:54:49.404Z,14.69
2023-01-13T03:57:20.843Z,14.69
2023-01-13T03:59:53.270Z,14.69
2023-01-13T04:02:33.934Z,14.68
2023-01-13T04:05:04.907Z,14.69
2023-01-13T04:07:43.292Z,14.69
2023-01-13T04:10:13.083Z,14.69
2023-01-13T04:13:01.286Z,14.69
2023-01-13T04:15:31.467Z,14.70
2023-01-13T04:18:16.238Z,14.70
2023-01-13T04:20:44.929Z,14.70
2023-01-13T04:23:13.581Z,14.70
2023-01-13T04:25:41.561Z,14.69
2023-01-13T04:28:09.562Z,14.69
2023-01-13T04:30:37.744Z,14.69
2023-01-13T04:33:06.273Z,14.69
2023-01-13T04:35:36.717Z,14.70
2023-01-13T04:38:05.119Z,14.69
2023-01-13T04:40:32.753Z,14.70
2023-01-13T04:43:00.462Z,14.69
2023-01-13T04:45:28.187Z,14.70
2023-01-13T04:47:55.814Z,14.69
2023-01-13T04:50:23.677Z,14.70
2023-01-13T04:52:53.740Z,14.70
2023-01-13T04:55:23.091Z,14.70
2023-01-13T04:57:50.781Z,14.70
2023-01-13T05:00:20.881Z,14.72
2023-01-13T05:02:50.767Z,14.71
2023-01-13T05:05:18.910Z,14.71
2023-01-13T05:07:47.009Z,14.71
2023-01-13T05:10:16.126Z,14.71
2023-01-13T05:13:01.196Z,14.71
2023-01-13T05:15:46.809Z,14.73
2023-01-13T05:18:14.662Z,14.72
2023-01-13T05:20:42.299Z,14.72
2023-01-13T05:23:27.677Z,14.73
2023-01-13T05:25:56.732Z,14.74
2023-01-13T05:28:24.367Z,14.73
2023-01-13T05:30:52.569Z,14.74
2023-01-13T05:33:21.477Z,14.75
2023-01-13T05:35:49.708Z,14.75
2023-01-13T05:38:18.589Z,14.75
2023-01-13T05:41:04.242Z,14.75
2023-01-13T05:43:34.765Z,14.76
2023-01-13T05:46:04.402Z,14.74
2023-01-13T05:48:34.510Z,14.75
2023-01-13T05:51:03.275Z,14.75
2023-01-13T05:53:31.798Z,14.74
2023-01-13T05:56:00.292Z,14.76
2023-01-13T05:58:29.248Z,14.75
2023-01-13T06:01:02.524Z,14.75
2023-01-13T06:03:30.539Z,14.74
2023-01-13T06:06:01.581Z,14.74
2023-01-13T06:08:29.990Z,14.74
2023-01-13T06:10:57.872Z,14.73
2023-01-13T06:13:26.296Z,14.75
2023-01-13T06:15:57.843Z,14.73
2023-01-13T06:18:27.482Z,14.74
2023-01-13T06:20:55.231Z,14.74
2023-01-13T06:23:23.275Z,14.74
2023-01-13T06:25:59.567Z,14.74
2023-01-13T06:28:27.370Z,14.74
2023-01-13T06:30:58.706Z,14.74
2023-01-13T06:33:31.191Z,14.74
2023-01-13T06:36:03.061Z,14.73
2023-01-13T06:38:35.323Z,14.75
2023-01-13T06:41:03.427Z,14.74
2023-01-13T06:43:30.120Z,14.76
2023-01-13T06:45:58.037Z,14.75
2023-01-13T06:48:32.929Z,14.76
2023-01-13T06:51:00.800Z,14.77
2023-01-13T06:53:28.408Z,14.77
2023-01-13T06:55:56.053Z,14.77
2023-01-13T06:58:23.725Z,14.77
2023-01-13T07:00:51.662Z,14.77
2023-01-13T07:03:20.162Z,14.77
2023-01-13T07:05:54.488Z,14.77
2023-01-13T07:08:22.925Z,14.78
2023-01-13T07:10:51.183Z,14.77
2023-01-13T07:13:36.241Z,14.77
2023-01-13T07:16:06.065Z,14.77
2023-01-13T07:18:35.271Z,14.77
2023-01-13T07:21:06.074Z,14.76
2023-01-13T07:23:35.575Z,14.76
2023-01-13T07:26:03.500Z,14.77
2023-01-13T07:28:32.181Z,14.75
2023-01-13T07:31:00.647Z,14.77
2023-01-13T07:33:28.746Z,14.76
2023-01-13T07:35:58.018Z,14.77
2023-01-13T07:38:27.070Z,14.77
2023-01-13T07:40:55.044Z,14.76
2023-01-13T07:43:33.679Z,14.76
2023-01-13T07:46:03.060Z,14.78
2023-01-13T07:48:31.781Z,14.77
2023-01-13T07:51:02.531Z,14.77
2023-01-13T07:53:31.522Z,14.76
2023-01-13T07:56:00.033Z,14.76
2023-01-13T07:58:28.099Z,14.76
2023-01-13T08:00:56.523Z,14.76
2023-01-13T08:03:25.035Z,14.76
2023-01-13T08:05:53.036Z,14.76
2023-01-13T08:08:20.931Z,14.75
2023-01-13T08:10:49.894Z,14.76
2023-01-13T08:13:20.057Z,14.78
2023-01-13T08:15:49.870Z,14.77
2023-01-13T08:18:20.829Z,14.77
2023-01-13T08:20:49.642Z,14.77
2023-01-13T08:23:17.587Z,14.77
2023-01-13T08:25:45.849Z,14.78
2023-01-13T08:28:15.854Z,14.78
2023-01-13T08:30:43.694Z,14.78
2023-01-13T08:33:13.148Z,14.78
2023-01-13T08:35:42.348Z,14.77
2023-01-13T08:38:10.075Z,14.77
2023-01-13T08:40:38.174Z,14.77
2023-01-13T08:43:05.868Z,14.78
2023-01-13T08:45:36.024Z,14.78
2023-01-13T08:48:04.132Z,14.76
2023-01-13T08:50:31.824Z,14.77
2023-01-13T08:52:59.450Z,14.77
2023-01-13T08:55:27.211Z,14.77
2023-01-13T08:58:06.406Z,14.78
2023-01-13T09:00:44.064Z,14.77
2023-01-13T09:03:11.904Z,14.77
2023-01-13T09:05:39.589Z,14.77
2023-01-13T09:08:07.281Z,14.76
2023-01-13T09:10:35.647Z,14.79
2023-01-13T09:13:14.599Z,14.77
2023-01-13T09:15:47.326Z,14.78
2023-01-13T09:18:15.337Z,14.78
2023-01-13T09:20:44.487Z,14.77
2023-01-13T09:23:12.257Z,14.78
2023-01-13T09:25:40.069Z,14.77
2023-01-13T09:28:08.533Z,14.78
2023-01-13T09:30:37.345Z,14.76
2023-01-13T09:33:23.751Z,14.78
2023-01-13T09:35:51.522Z,14.78
2023-01-13T09:38:19.233Z,14.78
2023-01-13T09:40:50.043Z,14.78
2023-01-13T09:43:40.819Z,14.78
2023-01-13T09:46:36.101Z,14.77
2023-01-13T09:49:05.918Z,14.78
2023-01-13T09:51:40.375Z,14.76
2023-01-13T09:54:17.260Z,14.77
2023-01-13T09:56:44.983Z,14.76
2023-01-13T09:59:13.301Z,14.77
2023-01-13T10:01:51.691Z,14.78
2023-01-13T10:04:20.915Z,14.78
2023-01-13T10:06:51.118Z,14.77
2023-01-13T10:09:24.244Z,14.78
2023-01-13T10:12:11.940Z,14.77
2023-01-13T10:14:46.788Z,14.77
2023-01-13T10:17:21.965Z,14.76
2023-01-13T10:19:57.553Z,14.77
2023-01-13T10:22:46.649Z,14.77
2023-01-13T10:25:28.638Z,14.77
2023-01-13T10:28:04.268Z,14.78
2023-01-13T10:30:36.631Z,14.78
2023-01-13T10:33:12.111Z,14.78
2023-01-13T10:35:56.781Z,14.77
2023-01-13T10:38:27.632Z,14.77
2023-01-13T10:40:57.318Z,14.78
2023-01-13T10:43:25.036Z,14.77
2023-01-13T10:45:57.914Z,14.76
2023-01-13T10:48:34.935Z,14.77
2023-01-13T10:51:19.132Z,14.77
2023-01-13T10:53:51.736Z,14.78
2023-01-13T10:56:21.511Z,14.78
2023-01-13T10:58:49.156Z,14.77
2023-01-13T11:01:28.145Z,14.78
2023-01-13T11:03:56.782Z,14.78
2023-01-13T11:06:28.874Z,14.78
2023-01-13T11:08:59.136Z,14.78
2023-01-13T11:11:37.357Z,14.77
2023-01-13T11:14:29.411Z,14.78
2023-01-13T11:17:01.048Z,14.78
2023-01-13T11:19:31.749Z,14.77
2023-01-13T11:22:07.516Z,14.78
2023-01-13T11:24:38.697Z,14.78
2023-01-13T11:27:13.459Z,14.78
2023-01-13T11:29:51.147Z,14.78
2023-01-13T11:32:21.292Z,14.79
2023-01-13T11:34:52.694Z,14.79
2023-01-13T11:37:25.927Z,14.77
2023-01-13T11:40:01.525Z,14.78
2023-01-13T11:42:34.771Z,14.78
2023-01-13T11:45:12.317Z,14.78
2023-01-13T11:47:40.235Z,14.78
2023-01-13T11:50:17.194Z,14.78
2023-01-13T11:53:06.625Z,14.78
2023-01-13T11:55:47.795Z,14.78
2023-01-13T11:58:28.976Z,14.79
2023-01-13T12:01:22.262Z,14.78
2023-01-13T12:04:00.129Z,14.78
2023-01-13T12:06:35.552Z,14.78
2023-01-13T12:09:32.584Z,14.77
2023-01-13T12:12:27.439Z,14.78
2023-01-13T12:15:19.488Z,14.78
2023-01-13T12:17:56.812Z,14.78
2023-01-13T12:20:35.479Z,14.78
2023-01-13T12:23:08.635Z,14.78
2023-01-13T12:25:41.695Z,14.78
2023-01-13T12:28:14.925Z,14.78
2023-01-13T12:30:46.964Z,14.80
2023-01-13T12:33:25.349Z,14.78
2023-01-13T12:36:01.608Z,14.79
2023-01-13T12:38:37.226Z,14.79
2023-01-13T12:41:16.696Z,14.79
2023-01-13T12:44:06.355Z,14.79
2023-01-13T12:46:47.332Z,14.78
2023-01-13T12:49:26.999Z,14.79
2023-01-13T12:52:24.563Z,14.80
2023-01-13T12:55:13.383Z,14.79
2023-01-13T12:57:57.967Z,14.78
2023-01-13T13:00:33.080Z,14.78
2023-01-13T13:03:27.380Z,14.77
2023-01-13T13:06:03.147Z,14.78
2023-01-13T13:08:44.996Z,14.78
2023-01-13T13:11:40.029Z,14.78
2023-01-13T13:14:13.387Z,14.79
2023-01-13T13:16:51.096Z,14.77
2023-01-13T13:19:44.609Z,14.78
2023-01-13T13:22:20.413Z,14.79
2023-01-13T13:25:21.058Z,14.79
2023-01-13T13:27:56.753Z,14.79
2023-01-13T13:30:30.005Z,14.79
2023-01-13T13:33:10.119Z,14.80
2023-01-13T13:35:51.931Z,14.81
2023-01-13T13:38:49.984Z,14.81
2023-01-13T13:41:37.698Z,14.82
2023-01-13T13:44:33.881Z,14.82
2023-01-13T13:47:04.726Z,14.83
2023-01-13T13:49:41.269Z,14.83
2023-01-13T13:52:19.011Z,14.83
2023-01-13T13:54:51.906Z,14.82
2023-01-13T13:57:21.469Z,14.82
2023-01-13T13:59:54.908Z,14.82
2023-01-13T14:02:30.311Z,14.82
2023-01-13T14:05:20.409Z,14.81
2023-01-13T14:07:50.253Z,14.83
2023-01-13T14:10:21.677Z,14.82
2023-01-13T14:12:49.635Z,14.82
2023-01-13T14:15:29.250Z,14.83
2023-01-13T14:17:58.315Z,14.82
2023-01-13T14:20:27.971Z,14.82
2023-01-13T14:23:00.503Z,14.82
2023-01-13T14:25:34.424Z,14.81
2023-01-13T14:28:15.104Z,14.82
2023-01-13T14:30:43.274Z,14.82
2023-01-13T14:33:17.594Z,14.82
2023-01-13T14:36:21.922Z,14.81
2023-01-13T14:38:51.852Z,14.82
2023-01-13T14:41:24.951Z,14.82
2023-01-13T14:43:55.827Z,14.82
2023-01-13T14:46:25.508Z,14.82
2023-01-13T14:49:01.407Z,14.82
2023-01-13T14:51:31.261Z,14.83
2023-01-13T14:53:59.648Z,14.81
2023-01-13T14:56:42.780Z,14.82
2023-01-13T14:59:35.850Z,14.83
2023-01-13T15:02:24.434Z,14.82
2023-01-13T15:04:54.309Z,14.81
2023-01-13T15:07:26.941Z,14.83
2023-01-13T15:09:56.084Z,14.82
2023-01-13T15:12:31.971Z,14.82
2023-01-13T15:14:59.972Z,14.84
2023-01-13T15:17:27.654Z,14.82
2023-01-13T15:19:56.658Z,14.82
2023-01-13T15:22:24.298Z,14.82
2023-01-13T15:24:52.090Z,14.82
2023-01-13T15:27:27.203Z,14.82
2023-01-13T15:29:54.874Z,14.82
2023-01-13T15:32:22.935Z,14.81
2023-01-13T15:34:52.945Z,14.81
2023-01-13T15:37:21.919Z,14.81
2023-01-13T15:39:49.567Z,14.82
2023-01-13T15:42:34.715Z,14.81
2023-01-13T15:45:16.245Z,14.81
2023-01-13T15:47:45.747Z,14.80
2023-01-13T15:50:15.861Z,14.80
2023-01-13T15:52:45.365Z,14.80
2023-01-13T15:55:13.019Z,14.80
2023-01-13T15:57:45.128Z,14.80
2023-01-13T16:00:16.902Z,14.79
2023-01-13T16:02:44.648Z,14.79
2023-01-13T16:05:12.421Z,14.79
2023-01-13T16:07:40.488Z,14.79
2023-01-13T16:10:18.446Z,14.79
2023-01-13T16:12:46.119Z,14.80
2023-01-13T16:15:15.576Z,14.79
2023-01-13T16:17:44.407Z,14.80
2023-01-13T16:20:16.203Z,14.80
2023-01-13T16:22:45.194Z,14.81
2023-01-13T16:25:18.797Z,14.80
2023-01-13T16:27:47.076Z,14.80
2023-01-13T16:30:23.848Z,14.81
2023-01-13T16:32:52.069Z,14.82
2023-01-13T16:35:20.357Z,14.80
2023-01-13T16:37:48.548Z,14.81
2023-01-13T16:40:24.174Z,14.81
2023-01-13T16:42:52.321Z,14.81
2023-01-13T16:45:20.492Z,14.81
2023-01-13T16:47:48.183Z,14.82
2023-01-13T16:50:36.542Z,14.81
2023-01-13T16:53:05.098Z,14.82
2023-01-13T16:55:34.072Z,14.82
2023-01-13T16:58:01.754Z,14.81
2023-01-13T17:00:29.623Z,14.82
2023-01-13T17:02:58.839Z,14.82
2023-01-13T17:05:26.484Z,14.82
2023-01-13T17:07:54.173Z,14.82
2023-01-13T17:10:24.196Z,14.82
2023-01-13T17:12:53.189Z,14.82
2023-01-13T17:15:20.845Z,14.83
2023-01-13T17:17:51.915Z,14.84
2023-01-13T17:20:20.399Z,14.82
2023-01-13T17:22:57.757Z,14.83
2023-01-13T17:25:25.825Z,14.83
2023-01-13T17:27:54.806Z,14.83
2023-01-13T17:30:22.413Z,14.83
2023-01-13T17:32:50.061Z,14.83
2023-01-13T17:35:22.849Z,14.84
2023-01-13T17:37:50.515Z,14.81
2023-01-13T17:40:18.452Z,14.82
2023-01-13T17:42:46.086Z,14.83
2023-01-13T17:45:16.314Z,14.84
2023-01-13T17:47:44.095Z,14.83
2023-01-13T17:50:11.863Z,14.84
2023-01-13T17:52:39.504Z,14.84
2023-01-13T17:55:07.633Z,14.84
2023-01-13T17:57:35.954Z,14.84
2023-01-13T18:00:04.622Z,14.84
2023-01-13T18:02:33.735Z,14.84
2023-01-13T18:05:01.682Z,14.84
2023-01-13T18:07:29.315Z,14.85
2023-01-13T18:09:56.923Z,14.84
2023-01-13T18:12:24.613Z,14.85
2023-01-13T18:14:52.218Z,14.84
2023-01-13T18:17:19.850Z,14.84
2023-01-13T18:20:06.245Z,14.84
2023-01-13T18:22:51.523Z,14.84
2023-01-13T18:25:36.810Z,14.84
2023-01-13T18:28:04.974Z,14.84
2023-01-13T18:30:32.616Z,14.86
2023-01-13T18:33:00.279Z,14.84
2023-01-13T18:35:30.091Z,14.85
2023-01-13T18:37:57.754Z,14.84
2023-01-13T18:40:25.368Z,14.84
2023-01-13T18:42:52.149Z,14.84
2023-01-13T18:45:20.842Z,14.84
2023-01-13T18:47:48.520Z,14.84
2023-01-13T18:50:17.208Z,14.84
2023-01-13T18:52:46.258Z,14.85
2023-01-13T18:55:14.290Z,14.84
2023-01-13T18:57:41.948Z,14.85
2023-01-13T19:00:11.651Z,14.85
2023-01-13T19:02:39.779Z,14.85
2023-01-13T19:05:08.274Z,14.85
2023-01-13T19:07:36.724Z,14.85
2023-01-13T19:10:09.567Z,14.84
2023-01-13T19:12:37.439Z,14.85
2023-01-13T19:15:05.701Z,14.84
2023-01-13T19:17:35.191Z,14.85
2023-01-13T19:20:04.168Z,14.84
2023-01-13T19:22:34.219Z,14.84
2023-01-13T19:25:03.072Z,14.84
2023-01-13T19:27:32.355Z,14.84
2023-01-13T19:30:00.836Z,14.84
2023-01-13T19:32:30.917Z,14.83
2023-01-13T19:34:59.780Z,14.84
2023-01-13T19:37:30.281Z,14.84
2023-01-13T19:39:59.105Z,14.84
2023-01-13T19:42:44.100Z,14.84
2023-01-13T19:45:27.579Z,14.85
2023-01-13T19:47:55.622Z,14.84
2023-01-13T19:50:23.602Z,14.85
2023-01-13T19:52:51.282Z,14.84
2023-01-13T19:55:19.763Z,14.85
2023-01-13T19:57:47.629Z,14.85
2023-01-13T20:00:20.607Z,14.85
2023-01-13T20:02:49.440Z,14.86
2023-01-13T20:05:21.408Z,14.85
2023-01-13T20:07:49.947Z,14.85
2023-01-13T20:10:18.722Z,14.84
2023-01-13T20:12:46.459Z,14.84
2023-01-13T20:15:14.112Z,14.84
2023-01-13T20:17:43.163Z,14.83
2023-01-13T20:20:12.143Z,14.83
2023-01-13T20:22:40.518Z,14.85
2023-01-13T20:25:09.702Z,14.84
2023-01-13T20:27:37.575Z,14.84
2023-01-13T20:30:06.407Z,14.84
2023-01-13T20:32:34.083Z,14.83
2023-01-13T20:35:03.034Z,14.86
2023-01-13T20:37:30.993Z,14.85
2023-01-13T20:40:01.470Z,14.86
2023-01-13T20:42:39.726Z,14.87
2023-01-13T20:45:08.352Z,14.87
2023-01-13T20:47:36.005Z,14.88
2023-01-13T20:50:05.536Z,14.86
2023-01-13T20:52:33.188Z,14.86
2023-01-13T20:55:00.861Z,14.87
2023-01-13T20:57:28.497Z,14.87
2023-01-13T20:59:56.147Z,14.88
2023-01-13T21:02:25.315Z,14.86
2023-01-13T21:04:53.109Z,14.87
2023-01-13T21:07:22.205Z,14.87
2023-01-13T21:09:49.815Z,14.88
2023-01-13T21:12:36.096Z,14.87
2023-01-13T21:15:20.053Z,14.88
2023-01-13T21:18:09.543Z,14.87
2023-01-13T21:20:39.097Z,14.87
2023-01-13T21:23:10.629Z,14.87
2023-01-13T21:25:39.774Z,14.87
2023-01-13T21:28:08.527Z,14.87
2023-01-13T21:30:38.148Z,14.88
2023-01-13T21:33:06.336Z,14.87
2023-01-13T21:35:34.296Z,14.87
2023-01-13T21:38:01.951Z,14.87
2023-01-13T21:40:30.909Z,14.86
2023-01-13T21:43:16.277Z,14.87
2023-01-13T21:46:01.652Z,14.85
2023-01-13T21:48:29.348Z,14.85
2023-01-13T21:51:00.538Z,14.85
2023-01-13T21:53:28.415Z,14.86
2023-01-13T21:55:57.433Z,14.87
2023-01-13T21:58:25.089Z,14.85
2023-01-13T22:00:52.710Z,14.85
2023-01-13T22:03:20.388Z,14.85
2023-01-13T22:05:54.494Z,14.84
2023-01-13T22:08:22.263Z,14.85
2023-01-13T22:10:58.421Z,14.84
2023-01-13T22:13:47.486Z,14.83
2023-01-13T22:16:15.575Z,14.84
2023-01-13T22:18:43.272Z,14.84
2023-01-13T22:21:11.047Z,14.84
2023-01-13T22:23:38.802Z,14.84
2023-01-13T22:26:08.440Z,14.84
2023-01-13T22:28:42.806Z,14.85
2023-01-13T22:31:12.155Z,14.84
2023-01-13T22:33:42.128Z,14.84
2023-01-13T22:36:11.063Z,14.84
2023-01-13T22:38:38.736Z,14.83
2023-01-13T22:41:07.881Z,14.84
2023-01-13T22:43:38.319Z,14.85
2023-01-13T22:46:08.313Z,14.84
2023-01-13T22:48:36.646Z,14.84
2023-01-13T22:51:08.959Z,14.83
2023-01-13T22:53:37.155Z,14.84
2023-01-13T22:56:06.111Z,14.84
2023-01-13T22:58:33.820Z,14.83
2023-01-13T23:01:13.817Z,14.83
2023-01-13T23:03:41.996Z,14.83
2023-01-13T23:06:09.816Z,14.83
2023-01-13T23:08:37.897Z,14.82
2023-01-13T23:11:08.422Z,14.82
2023-01-13T23:13:36.146Z,14.82
2023-01-13T23:16:04.514Z,14.82
2023-01-13T23:18:33.548Z,14.82
2023-01-13T23:21:04.981Z,14.81
2023-01-13T23:23:33.097Z,14.81
2023-01-13T23:26:01.477Z,14.81
2023-01-13T23:28:29.161Z,14.83
2023-01-13T23:30:56.892Z,14.84
2023-01-13T23:33:24.591Z,14.84
2023-01-13T23:36:01.051Z,14.85
2023-01-13T23:38:29.597Z,14.85
2023-01-13T23:40:57.643Z,14.86
2023-01-13T23:43:26.729Z,14.85
2023-01-13T23:46:01.904Z,14.86
2023-01-13T23:48:29.644Z,14.85
2023-01-13T23:50:59.213Z,14.84
2023-01-13T23:53:32.070Z,14.83
2023-01-13T23:56:00.322Z,14.84
2023-01-13T23:58:28.649Z,14.85
